sensor_id;sensor_type;location;lat;lon;timestamp;pressure;altitude;pressure_sealevel;temperature;humidity
61035;BME280;46916;40.564;-7.958;2023-02-02T00:00:40;98396.81;;;7.57;68.64
61035;BME280;46916;40.564;-7.958;2023-02-02T00:02:40;98398.69;;;7.55;68.64
61035;BME280;46916;40.564;-7.958;2023-02-02T00:04:41;98394.56;;;7.51;68.43
61035;BME280;46916;40.564;-7.958;2023-02-02T00:06:41;98407.50;;;7.53;69.00
61035;BME280;46916;40.564;-7.958;2023-02-02T00:08:42;98405.91;;;7.50;69.20
61035;BME280;46916;40.564;-7.958;2023-02-02T00:10:43;98400.03;;;7.47;69.22
61035;BME280;46916;40.564;-7.958;2023-02-02T00:12:44;98404.59;;;7.43;69.83
61035;BME280;46916;40.564;-7.958;2023-02-02T00:14:45;98410.72;;;7.42;69.77
61035;BME280;46916;40.564;-7.958;2023-02-02T00:16:48;98408.09;;;7.42;69.67
61035;BME280;46916;40.564;-7.958;2023-02-02T00:18:49;98411.75;;;7.39;70.01
61035;BME280;46916;40.564;-7.958;2023-02-02T00:20:50;98414.34;;;7.39;70.06
61035;BME280;46916;40.564;-7.958;2023-02-02T00:22:52;98406.78;;;7.35;70.36
61035;BME280;46916;40.564;-7.958;2023-02-02T00:24:52;98404.91;;;7.37;70.03
61035;BME280;46916;40.564;-7.958;2023-02-02T00:26:55;98407.78;;;7.32;70.30
61035;BME280;46916;40.564;-7.958;2023-02-02T00:28:56;98400.91;;;7.31;70.54
61035;BME280;46916;40.564;-7.958;2023-02-02T00:30:57;98403.41;;;7.33;70.52
61035;BME280;46916;40.564;-7.958;2023-02-02T00:32:58;98411.06;;;7.36;70.78
61035;BME280;46916;40.564;-7.958;2023-02-02T00:34:58;98406.19;;;7.30;70.37
61035;BME280;46916;40.564;-7.958;2023-02-02T00:36:59;98412.44;;;7.27;70.72
61035;BME280;46916;40.564;-7.958;2023-02-02T00:39:00;98406.69;;;7.20;70.64
61035;BME280;46916;40.564;-7.958;2023-02-02T00:41:00;98405.19;;;7.16;71.17
61035;BME280;46916;40.564;-7.958;2023-02-02T00:43:01;98397.47;;;7.15;70.58
61035;BME280;46916;40.564;-7.958;2023-02-02T00:45:03;98404.34;;;7.16;71.12
61035;BME280;46916;40.564;-7.958;2023-02-02T00:47:16;98401.75;;;7.16;71.00
61035;BME280;46916;40.564;-7.958;2023-02-02T00:49:17;98402.69;;;7.15;70.99
61035;BME280;46916;40.564;-7.958;2023-02-02T00:51:18;98404.25;;;7.17;71.05
61035;BME280;46916;40.564;-7.958;2023-02-02T00:53:19;98409.56;;;7.16;71.28
61035;BME280;46916;40.564;-7.958;2023-02-02T00:55:20;98401.66;;;7.17;71.04
61035;BME280;46916;40.564;-7.958;2023-02-02T00:57:21;98407.06;;;7.14;71.12
61035;BME280;46916;40.564;-7.958;2023-02-02T00:59:22;98409.47;;;7.17;71.30
61035;BME280;46916;40.564;-7.958;2023-02-02T01:01:23;98402.59;;;7.16;70.96
61035;BME280;46916;40.564;-7.958;2023-02-02T01:03:23;98403.50;;;7.15;71.24
61035;BME280;46916;40.564;-7.958;2023-02-02T01:05:24;98408.72;;;7.15;71.43
61035;BME280;46916;40.564;-7.958;2023-02-02T01:07:24;98400.13;;;7.13;71.28
61035;BME280;46916;40.564;-7.958;2023-02-02T01:09:25;98400.13;;;7.13;71.23
61035;BME280;46916;40.564;-7.958;2023-02-02T01:11:27;98403.56;;;7.14;71.42
61035;BME280;46916;40.564;-7.958;2023-02-02T01:13:28;98399.25;;;7.14;71.14
61035;BME280;46916;40.564;-7.958;2023-02-02T01:15:29;98404.34;;;7.16;70.79
61035;BME280;46916;40.564;-7.958;2023-02-02T01:17:29;98399.25;;;7.14;71.19
61035;BME280;46916;40.564;-7.958;2023-02-02T01:19:32;98396.53;;;7.16;70.79
61035;BME280;46916;40.564;-7.958;2023-02-02T01:21:33;98398.38;;;7.14;71.03
61035;BME280;46916;40.564;-7.958;2023-02-02T01:23:34;98393.16;;;7.14;71.07
61035;BME280;46916;40.564;-7.958;2023-02-02T01:25:36;98399.13;;;7.16;70.94
61035;BME280;46916;40.564;-7.958;2023-02-02T01:27:37;98406.13;;;7.15;70.60
61035;BME280;46916;40.564;-7.958;2023-02-02T01:29:38;98405.34;;;7.13;70.77
61035;BME280;46916;40.564;-7.958;2023-02-02T01:31:39;98396.69;;;7.13;70.55
61035;BME280;46916;40.564;-7.958;2023-02-02T01:33:42;98396.97;;;7.08;70.93
61035;BME280;46916;40.564;-7.958;2023-02-02T01:35:47;98404.69;;;7.10;71.36
61035;BME280;46916;40.564;-7.958;2023-02-02T01:37:49;98396.22;;;7.06;71.47
61035;BME280;46916;40.564;-7.958;2023-02-02T01:39:50;98398.03;;;7.04;71.01
61035;BME280;46916;40.564;-7.958;2023-02-02T01:41:51;98401.59;;;7.03;71.33
61035;BME280;46916;40.564;-7.958;2023-02-02T01:43:55;98395.44;;;7.04;71.03
61035;BME280;46916;40.564;-7.958;2023-02-02T01:45:57;98391.00;;;7.06;70.97
61035;BME280;46916;40.564;-7.958;2023-02-02T01:47:59;98386.78;;;7.04;71.10
61035;BME280;46916;40.564;-7.958;2023-02-02T01:49:59;98405.75;;;7.06;70.73
61035;BME280;46916;40.564;-7.958;2023-02-02T01:52:00;98396.38;;;7.03;70.83
61035;BME280;46916;40.564;-7.958;2023-02-02T01:54:02;98397.31;;;7.02;71.08
61035;BME280;46916;40.564;-7.958;2023-02-02T01:56:06;98397.22;;;7.04;71.15
61035;BME280;46916;40.564;-7.958;2023-02-02T01:58:17;98397.22;;;7.04;70.77
61035;BME280;46916;40.564;-7.958;2023-02-02T02:00:19;98399.03;;;7.02;70.93
61035;BME280;46916;40.564;-7.958;2023-02-02T02:02:25;98401.59;;;7.03;70.96
61035;BME280;46916;40.564;-7.958;2023-02-02T02:04:28;98405.97;;;7.03;70.75
61035;BME280;46916;40.564;-7.958;2023-02-02T02:06:30;98403.41;;;7.01;70.62
61035;BME280;46916;40.564;-7.958;2023-02-02T02:08:38;98405.19;;;7.01;70.54
61035;BME280;46916;40.564;-7.958;2023-02-02T02:10:40;98407.72;;;7.02;70.40
61035;BME280;46916;40.564;-7.958;2023-02-02T02:12:40;98411.22;;;7.01;70.45
61035;BME280;46916;40.564;-7.958;2023-02-02T02:14:44;98410.56;;;6.98;70.33
61035;BME280;46916;40.564;-7.958;2023-02-02T02:42:26;98392.13;;;6.69;71.54
61035;BME280;46916;40.564;-7.958;2023-02-02T02:44:29;98399.03;;;6.70;70.99
61035;BME280;46916;40.564;-7.958;2023-02-02T02:46:31;98405.09;;;6.70;71.23
61035;BME280;46916;40.564;-7.958;2023-02-02T02:48:33;98406.06;;;6.68;70.96
61035;BME280;46916;40.564;-7.958;2023-02-02T02:50:34;98405.25;;;6.67;70.95
61035;BME280;46916;40.564;-7.958;2023-02-02T02:52:35;98410.28;;;6.70;71.08
61035;BME280;46916;40.564;-7.958;2023-02-02T02:54:40;98404.16;;;6.72;70.70
61035;BME280;46916;40.564;-7.958;2023-02-02T03:06:54;98402.72;;;6.66;70.42
61035;BME280;46916;40.564;-7.958;2023-02-02T03:09:05;98404.41;;;6.67;70.99
61035;BME280;46916;40.564;-7.958;2023-02-02T03:11:10;98398.44;;;6.65;70.61
61035;BME280;46916;40.564;-7.958;2023-02-02T03:13:13;98394.09;;;6.65;70.36
61035;BME280;46916;40.564;-7.958;2023-02-02T03:15:15;98398.53;;;6.63;70.79
61035;BME280;46916;40.564;-7.958;2023-02-02T03:17:16;98392.72;;;6.58;70.85
61035;BME280;46916;40.564;-7.958;2023-02-02T03:19:17;98397.00;;;6.59;71.26
61035;BME280;46916;40.564;-7.958;2023-02-02T03:21:18;98393.72;;;6.56;70.50
61035;BME280;46916;40.564;-7.958;2023-02-02T03:23:19;98398.88;;;6.57;70.81
61035;BME280;46916;40.564;-7.958;2023-02-02T03:25:19;98399.69;;;6.58;70.46
61035;BME280;46916;40.564;-7.958;2023-02-02T03:27:20;98396.00;;;6.62;70.48
61035;BME280;46916;40.564;-7.958;2023-02-02T03:29:20;98395.56;;;6.54;70.61
61035;BME280;46916;40.564;-7.958;2023-02-02T03:31:22;98399.31;;;6.48;70.98
61035;BME280;46916;40.564;-7.958;2023-02-02T03:33:23;98389.75;;;6.49;71.14
61035;BME280;46916;40.564;-7.958;2023-02-02T03:35:24;98389.09;;;6.45;70.62
61035;BME280;46916;40.564;-7.958;2023-02-02T03:37:25;98391.59;;;6.47;71.30
61035;BME280;46916;40.564;-7.958;2023-02-02T03:39:26;98387.34;;;6.45;70.74
61035;BME280;46916;40.564;-7.958;2023-02-02T03:41:26;98384.78;;;6.44;71.33
61035;BME280;46916;40.564;-7.958;2023-02-02T03:43:27;98381.50;;;6.40;71.45
61035;BME280;46916;40.564;-7.958;2023-02-02T03:45:28;98382.44;;;6.39;71.41
61035;BME280;46916;40.564;-7.958;2023-02-02T03:47:29;98381.59;;;6.39;71.45
61035;BME280;46916;40.564;-7.958;2023-02-02T03:49:30;98391.41;;;6.34;71.34
61035;BME280;46916;40.564;-7.958;2023-02-02T03:51:32;98378.56;;;6.31;71.58
61035;BME280;46916;40.564;-7.958;2023-02-02T03:53:33;98374.28;;;6.30;71.59
61035;BME280;46916;40.564;-7.958;2023-02-02T03:55:33;98377.03;;;6.27;71.92
61035;BME280;46916;40.564;-7.958;2023-02-02T03:57:34;98376.09;;;6.28;71.98
61035;BME280;46916;40.564;-7.958;2023-02-02T03:59:35;98381.66;;;6.22;71.91
61035;BME280;46916;40.564;-7.958;2023-02-02T04:01:35;98378.25;;;6.19;71.76
61035;BME280;46916;40.564;-7.958;2023-02-02T04:03:36;98377.53;;;6.17;72.16
61035;BME280;46916;40.564;-7.958;2023-02-02T04:05:37;98375.22;;;6.11;71.82
61035;BME280;46916;40.564;-7.958;2023-02-02T04:07:37;98377.66;;;6.14;71.64
61035;BME280;46916;40.564;-7.958;2023-02-02T04:09:38;98382.97;;;6.13;71.70
61035;BME280;46916;40.564;-7.958;2023-02-02T04:11:39;98385.63;;;6.11;71.70
61035;BME280;46916;40.564;-7.958;2023-02-02T04:13:39;98385.81;;;6.08;71.57
61035;BME280;46916;40.564;-7.958;2023-02-02T04:15:42;98385.03;;;6.06;72.54
61035;BME280;46916;40.564;-7.958;2023-02-02T04:17:43;98384.28;;;6.04;72.48
61035;BME280;46916;40.564;-7.958;2023-02-02T04:19:44;98386.00;;;6.04;72.23
61035;BME280;46916;40.564;-7.958;2023-02-02T04:21:44;98384.44;;;6.01;72.18
61035;BME280;46916;40.564;-7.958;2023-02-02T04:23:45;98382.97;;;5.95;72.12
61035;BME280;46916;40.564;-7.958;2023-02-02T04:25:49;98396.88;;;5.94;72.45
61035;BME280;46916;40.564;-7.958;2023-02-02T04:27:50;98391.88;;;5.90;72.37
61035;BME280;46916;40.564;-7.958;2023-02-02T04:29:51;98383.25;;;5.89;72.72
61035;BME280;46916;40.564;-7.958;2023-02-02T04:31:51;98391.06;;;5.89;72.22
61035;BME280;46916;40.564;-7.958;2023-02-02T04:33:52;98385.00;;;5.89;72.80
61035;BME280;46916;40.564;-7.958;2023-02-02T04:35:53;98391.97;;;5.88;72.50
61035;BME280;46916;40.564;-7.958;2023-02-02T04:37:54;98394.63;;;5.87;72.32
61035;BME280;46916;40.564;-7.958;2023-02-02T04:39:55;98395.72;;;5.83;72.93
61035;BME280;46916;40.564;-7.958;2023-02-02T04:41:55;98394.03;;;5.82;72.45
61035;BME280;46916;40.564;-7.958;2023-02-02T04:43:56;98392.22;;;5.84;72.57
61035;BME280;46916;40.564;-7.958;2023-02-02T04:45:57;98387.75;;;5.86;72.82
61035;BME280;46916;40.564;-7.958;2023-02-02T04:47:57;98398.00;;;5.89;72.44
61035;BME280;46916;40.564;-7.958;2023-02-02T04:49:58;98400.66;;;5.87;72.08
61035;BME280;46916;40.564;-7.958;2023-02-02T04:51:59;98391.78;;;5.91;72.42
61035;BME280;46916;40.564;-7.958;2023-02-02T04:53:59;98396.41;;;5.86;71.86
61035;BME280;46916;40.564;-7.958;2023-02-02T04:56:16;98393.28;;;5.80;72.44
61035;BME280;46916;40.564;-7.958;2023-02-02T04:58:17;98397.69;;;5.78;72.23
61035;BME280;46916;40.564;-7.958;2023-02-02T05:00:19;98391.44;;;5.82;72.09
61035;BME280;46916;40.564;-7.958;2023-02-02T05:02:19;98392.22;;;5.84;72.08
61035;BME280;46916;40.564;-7.958;2023-02-02T05:04:20;98397.22;;;5.87;72.07
61035;BME280;46916;40.564;-7.958;2023-02-02T05:06:21;98402.28;;;5.90;71.97
61035;BME280;46916;40.564;-7.958;2023-02-02T05:08:21;98408.41;;;5.89;71.67
61035;BME280;46916;40.564;-7.958;2023-02-02T05:10:22;98406.78;;;5.86;72.26
61035;BME280;46916;40.564;-7.958;2023-02-02T05:12:23;98407.19;;;5.79;72.06
61035;BME280;46916;40.564;-7.958;2023-02-02T05:14:23;98409.94;;;5.76;71.81
61035;BME280;46916;40.564;-7.958;2023-02-02T05:16:24;98415.06;;;5.77;72.08
61035;BME280;46916;40.564;-7.958;2023-02-02T05:18:25;98416.13;;;5.73;72.11
61035;BME280;46916;40.564;-7.958;2023-02-02T05:20:25;98416.22;;;5.71;72.53
61035;BME280;46916;40.564;-7.958;2023-02-02T05:22:26;98421.41;;;5.71;72.81
61035;BME280;46916;40.564;-7.958;2023-02-02T05:24:27;98412.84;;;5.69;72.88
61035;BME280;46916;40.564;-7.958;2023-02-02T05:26:27;98418.97;;;5.68;72.51
61035;BME280;46916;40.564;-7.958;2023-02-02T05:28:28;98413.63;;;5.71;72.28
61035;BME280;46916;40.564;-7.958;2023-02-02T05:30:29;98418.88;;;5.70;72.48
61035;BME280;46916;40.564;-7.958;2023-02-02T05:32:30;98413.69;;;5.70;72.13
61035;BME280;46916;40.564;-7.958;2023-02-02T05:34:30;98416.34;;;5.68;72.22
61035;BME280;46916;40.564;-7.958;2023-02-02T05:36:31;98421.69;;;5.65;72.05
61035;BME280;46916;40.564;-7.958;2023-02-02T05:38:32;98425.97;;;5.66;72.24
61035;BME280;46916;40.564;-7.958;2023-02-02T05:40:33;98421.84;;;5.62;72.47
61035;BME280;46916;40.564;-7.958;2023-02-02T05:42:34;98423.59;;;5.62;72.42
61035;BME280;46916;40.564;-7.958;2023-02-02T05:44:35;98424.28;;;5.65;72.57
61035;BME280;46916;40.564;-7.958;2023-02-02T05:46:35;98427.81;;;5.64;72.22
61035;BME280;46916;40.564;-7.958;2023-02-02T05:48:36;98425.28;;;5.63;72.14
61035;BME280;46916;40.564;-7.958;2023-02-02T05:50:37;98427.97;;;5.61;72.18
61035;BME280;46916;40.564;-7.958;2023-02-02T05:52:39;98431.47;;;5.60;72.23
61035;BME280;46916;40.564;-7.958;2023-02-02T05:54:40;98433.38;;;5.57;72.90
61035;BME280;46916;40.564;-7.958;2023-02-02T05:56:41;98429.94;;;5.56;73.24
61035;BME280;46916;40.564;-7.958;2023-02-02T05:58:42;98434.44;;;5.53;72.91
61035;BME280;46916;40.564;-7.958;2023-02-02T06:00:43;98439.88;;;5.48;73.25
61035;BME280;46916;40.564;-7.958;2023-02-02T06:02:44;98435.75;;;5.44;72.75
61035;BME280;46916;40.564;-7.958;2023-02-02T06:04:45;98440.94;;;5.44;72.18
61035;BME280;46916;40.564;-7.958;2023-02-02T06:06:47;98441.78;;;5.44;72.29
61035;BME280;46916;40.564;-7.958;2023-02-02T06:08:48;98441.91;;;5.41;72.59
61035;BME280;46916;40.564;-7.958;2023-02-02T06:10:48;98435.13;;;5.39;72.95
61035;BME280;46916;40.564;-7.958;2023-02-02T06:12:50;98436.94;;;5.37;73.54
61035;BME280;46916;40.564;-7.958;2023-02-02T06:14:50;98444.88;;;5.34;73.69
61035;BME280;46916;40.564;-7.958;2023-02-02T06:16:51;98443.31;;;5.30;73.27
61035;BME280;46916;40.564;-7.958;2023-02-02T06:18:52;98447.63;;;5.31;73.36
61035;BME280;46916;40.564;-7.958;2023-02-02T06:20:57;98451.59;;;5.38;73.17
61035;BME280;46916;40.564;-7.958;2023-02-02T06:22:58;98445.66;;;5.36;73.21
61035;BME280;46916;40.564;-7.958;2023-02-02T06:24:59;98458.56;;;5.37;73.33
61035;BME280;46916;40.564;-7.958;2023-02-02T06:27:00;98451.38;;;5.42;72.75
61035;BME280;46916;40.564;-7.958;2023-02-02T06:29:00;98447.72;;;5.46;72.76
61035;BME280;46916;40.564;-7.958;2023-02-02T06:31:06;98456.38;;;5.47;72.70
61035;BME280;46916;40.564;-7.958;2023-02-02T06:33:07;98452.31;;;5.41;72.64
61035;BME280;46916;40.564;-7.958;2023-02-02T06:35:08;98461.72;;;5.44;72.46
61035;BME280;46916;40.564;-7.958;2023-02-02T06:37:08;98459.41;;;5.38;72.18
61035;BME280;46916;40.564;-7.958;2023-02-02T06:39:09;98460.31;;;5.37;72.57
61035;BME280;46916;40.564;-7.958;2023-02-02T06:41:10;98474.38;;;5.33;72.77
61035;BME280;46916;40.564;-7.958;2023-02-02T06:43:10;98469.16;;;5.33;73.19
61035;BME280;46916;40.564;-7.958;2023-02-02T06:45:14;98473.59;;;5.31;72.33
61035;BME280;46916;40.564;-7.958;2023-02-02T06:47:15;98474.66;;;5.27;72.48
61035;BME280;46916;40.564;-7.958;2023-02-02T06:49:16;98472.91;;;5.27;73.18
61035;BME280;46916;40.564;-7.958;2023-02-02T06:51:16;98482.50;;;5.25;73.42
61035;BME280;46916;40.564;-7.958;2023-02-02T06:53:17;98476.59;;;5.21;73.56
61035;BME280;46916;40.564;-7.958;2023-02-02T06:55:22;98481.81;;;5.21;73.17
61035;BME280;46916;40.564;-7.958;2023-02-02T06:57:22;98478.44;;;5.19;73.02
61035;BME280;46916;40.564;-7.958;2023-02-02T06:59:23;98482.81;;;5.19;73.31
61035;BME280;46916;40.564;-7.958;2023-02-02T07:01:24;98481.75;;;5.23;73.24
61035;BME280;46916;40.564;-7.958;2023-02-02T07:03:24;98481.66;;;5.25;72.97
61035;BME280;46916;40.564;-7.958;2023-02-02T07:05:26;98483.34;;;5.26;72.95
61035;BME280;46916;40.564;-7.958;2023-02-02T07:07:31;98481.09;;;5.18;73.25
61035;BME280;46916;40.564;-7.958;2023-02-02T07:09:32;98486.88;;;5.25;73.01
61035;BME280;46916;40.564;-7.958;2023-02-02T07:11:33;98491.00;;;5.10;72.74
61035;BME280;46916;40.564;-7.958;2023-02-02T07:13:36;98494.72;;;5.04;73.46
61035;BME280;46916;40.564;-7.958;2023-02-02T07:15:40;98493.97;;;5.02;73.76
61035;BME280;46916;40.564;-7.958;2023-02-02T07:17:40;98506.06;;;5.02;73.35
61035;BME280;46916;40.564;-7.958;2023-02-02T07:19:41;98497.44;;;5.01;73.52
61035;BME280;46916;40.564;-7.958;2023-02-02T07:21:42;98497.94;;;5.09;73.29
61035;BME280;46916;40.564;-7.958;2023-02-02T07:23:42;98499.84;;;5.06;73.11
61035;BME280;46916;40.564;-7.958;2023-02-02T07:25:43;98497.09;;;5.09;73.59
61035;BME280;46916;40.564;-7.958;2023-02-02T07:27:44;98505.91;;;5.06;73.31
61035;BME280;46916;40.564;-7.958;2023-02-02T07:29:47;98516.28;;;5.06;73.37
61035;BME280;46916;40.564;-7.958;2023-02-02T07:31:47;98516.28;;;5.06;73.32
61035;BME280;46916;40.564;-7.958;2023-02-02T07:33:48;98504.97;;;5.07;73.05
61035;BME280;46916;40.564;-7.958;2023-02-02T07:35:49;98503.22;;;5.08;72.55
61035;BME280;46916;40.564;-7.958;2023-02-02T07:37:51;98509.16;;;5.10;73.38
61035;BME280;46916;40.564;-7.958;2023-02-02T07:39:53;98516.06;;;5.11;73.13
61035;BME280;46916;40.564;-7.958;2023-02-02T07:41:53;98511.78;;;5.10;72.57
61035;BME280;46916;40.564;-7.958;2023-02-02T07:44:05;98513.69;;;5.06;72.48
61035;BME280;46916;40.564;-7.958;2023-02-02T07:46:08;98507.63;;;5.06;72.86
61035;BME280;46916;40.564;-7.958;2023-02-02T07:48:09;98510.31;;;5.04;72.94
61035;BME280;46916;40.564;-7.958;2023-02-02T07:50:10;98512.97;;;5.03;72.89
61035;BME280;46916;40.564;-7.958;2023-02-02T07:52:10;98517.34;;;5.02;73.07
61035;BME280;46916;40.564;-7.958;2023-02-02T07:54:11;98515.38;;;5.07;72.92
61035;BME280;46916;40.564;-7.958;2023-02-02T07:56:14;98521.91;;;5.35;72.21
61035;BME280;46916;40.564;-7.958;2023-02-02T07:58:15;98528.47;;;5.61;71.89
61035;BME280;46916;40.564;-7.958;2023-02-02T08:00:16;98530.53;;;5.90;71.00
61035;BME280;46916;40.564;-7.958;2023-02-02T08:02:17;98528.44;;;6.16;70.00
61035;BME280;46916;40.564;-7.958;2023-02-02T08:04:18;98534.38;;;6.37;68.60
61035;BME280;46916;40.564;-7.958;2023-02-02T08:06:25;98539.50;;;6.38;67.57
61035;BME280;46916;40.564;-7.958;2023-02-02T08:08:27;98540.09;;;6.43;67.59
61035;BME280;46916;40.564;-7.958;2023-02-02T08:10:28;98534.66;;;6.48;67.23
61035;BME280;46916;40.564;-7.958;2023-02-02T08:12:28;98541.09;;;6.58;68.78
61035;BME280;46916;40.564;-7.958;2023-02-02T08:14:29;98551.38;;;6.77;69.24
61035;BME280;46916;40.564;-7.958;2023-02-02T08:16:33;98542.72;;;6.94;68.34
61035;BME280;46916;40.564;-7.958;2023-02-02T08:18:34;98549.81;;;7.08;67.62
61035;BME280;46916;40.564;-7.958;2023-02-02T08:20:35;98551.88;;;7.18;67.34
61035;BME280;46916;40.564;-7.958;2023-02-02T08:22:36;98549.50;;;7.30;67.08
61035;BME280;46916;40.564;-7.958;2023-02-02T08:24:37;98552.22;;;7.44;65.86
61035;BME280;46916;40.564;-7.958;2023-02-02T08:26:39;98551.81;;;7.52;65.36
61035;BME280;46916;40.564;-7.958;2023-02-02T08:28:41;98544.47;;;7.58;64.54
61035;BME280;46916;40.564;-7.958;2023-02-02T08:30:42;98545.84;;;7.65;64.29
61035;BME280;46916;40.564;-7.958;2023-02-02T08:32:43;98551.72;;;7.69;63.51
61035;BME280;46916;40.564;-7.958;2023-02-02T08:34:47;98550.78;;;7.70;63.71
61035;BME280;46916;40.564;-7.958;2023-02-02T08:36:48;98552.16;;;7.77;62.88
61035;BME280;46916;40.564;-7.958;2023-02-02T08:38:49;98555.44;;;7.81;63.04
61035;BME280;46916;40.564;-7.958;2023-02-02T08:40:50;98553.41;;;7.86;61.72
61035;BME280;46916;40.564;-7.958;2023-02-02T08:42:54;98555.75;;;7.75;62.08
61035;BME280;46916;40.564;-7.958;2023-02-02T08:44:55;98560.97;;;7.75;61.66
61035;BME280;46916;40.564;-7.958;2023-02-02T08:46:55;98557.25;;;7.63;62.15
61035;BME280;46916;40.564;-7.958;2023-02-02T08:48:57;98558.78;;;7.67;62.33
61035;BME280;46916;40.564;-7.958;2023-02-02T08:50:58;98554.44;;;7.67;62.38
61035;BME280;46916;40.564;-7.958;2023-02-02T08:53:04;98566.84;;;7.78;61.98
61035;BME280;46916;40.564;-7.958;2023-02-02T08:55:05;98566.97;;;7.77;62.05
61035;BME280;46916;40.564;-7.958;2023-02-02T08:57:06;98568.13;;;7.87;61.95
61035;BME280;46916;40.564;-7.958;2023-02-02T08:59:07;98574.75;;;8.08;61.40
61035;BME280;46916;40.564;-7.958;2023-02-02T09:01:28;98572.63;;;8.15;60.32
61035;BME280;46916;40.564;-7.958;2023-02-02T09:03:29;98580.16;;;8.05;60.41
61035;BME280;46916;40.564;-7.958;2023-02-02T09:05:30;98578.38;;;7.90;61.19
61035;BME280;46916;40.564;-7.958;2023-02-02T09:07:31;98584.69;;;8.02;61.37
61035;BME280;46916;40.564;-7.958;2023-02-02T09:09:32;98588.88;;;8.20;60.96
61035;BME280;46916;40.564;-7.958;2023-02-02T09:11:33;98588.53;;;8.26;60.24
61035;BME280;46916;40.564;-7.958;2023-02-02T09:13:35;98589.47;;;8.25;60.28
61035;BME280;46916;40.564;-7.958;2023-02-02T09:15:37;98593.75;;;8.26;60.21
61035;BME280;46916;40.564;-7.958;2023-02-02T09:17:38;98595.94;;;8.18;60.34
61035;BME280;46916;40.564;-7.958;2023-02-02T09:19:38;98593.94;;;8.07;60.72
61035;BME280;46916;40.564;-7.958;2023-02-02T09:21:39;98592.41;;;8.03;60.66
61035;BME280;46916;40.564;-7.958;2023-02-02T09:23:41;98594.59;;;8.11;60.63
61035;BME280;46916;40.564;-7.958;2023-02-02T09:25:42;98599.34;;;8.04;60.77
61035;BME280;46916;40.564;-7.958;2023-02-02T09:27:43;98605.47;;;8.03;61.15
61035;BME280;46916;40.564;-7.958;2023-02-02T09:29:43;98601.19;;;8.02;60.86
61035;BME280;46916;40.564;-7.958;2023-02-02T09:31:44;98606.06;;;8.08;60.95
61035;BME280;46916;40.564;-7.958;2023-02-02T09:33:46;98610.94;;;8.14;61.41
61035;BME280;46916;40.564;-7.958;2023-02-02T09:35:46;98609.31;;;8.28;60.44
61035;BME280;46916;40.564;-7.958;2023-02-02T09:37:47;98606.44;;;8.32;60.77
61035;BME280;46916;40.564;-7.958;2023-02-02T09:39:48;98614.47;;;8.45;60.67
61035;BME280;46916;40.564;-7.958;2023-02-02T09:46:19;98619.91;;;8.56;60.00
61035;BME280;46916;40.564;-7.958;2023-02-02T09:48:47;98613.50;;;8.62;60.13
61035;BME280;46916;40.564;-7.958;2023-02-02T09:50:56;98619.28;;;8.67;60.34
61035;BME280;46916;40.564;-7.958;2023-02-02T09:57:36;98619.81;;;8.88;59.27
61035;BME280;46916;40.564;-7.958;2023-02-02T09:59:40;98621.84;;;8.83;59.07
61035;BME280;46916;40.564;-7.958;2023-02-02T10:01:42;98622.78;;;8.82;59.58
61035;BME280;46916;40.564;-7.958;2023-02-02T10:04:05;98615.16;;;8.93;59.51
61035;BME280;46916;40.564;-7.958;2023-02-02T10:08:37;98626.38;;;9.09;59.30
61035;BME280;46916;40.564;-7.958;2023-02-02T10:10:44;98627.97;;;9.12;59.04
61035;BME280;46916;40.564;-7.958;2023-02-02T10:12:56;98630.59;;;9.12;59.48
61035;BME280;46916;40.564;-7.958;2023-02-02T10:19:22;98631.25;;;9.30;58.38
61035;BME280;46916;40.564;-7.958;2023-02-02T10:21:37;98632.00;;;9.32;58.66
61035;BME280;46916;40.564;-7.958;2023-02-02T10:23:42;98628.28;;;9.36;58.34
61035;BME280;46916;40.564;-7.958;2023-02-02T10:25:56;98636.09;;;9.50;58.51
61035;BME280;46916;40.564;-7.958;2023-02-02T10:28:05;98645.44;;;9.54;58.27
61035;BME280;46916;40.564;-7.958;2023-02-02T10:30:18;98643.69;;;9.69;58.33
61035;BME280;46916;40.564;-7.958;2023-02-02T10:33:05;98640.78;;;9.88;57.71
61035;BME280;46916;40.564;-7.958;2023-02-02T10:37:40;98650.84;;;9.94;56.42
61035;BME280;46916;40.564;-7.958;2023-02-02T10:45:18;98644.59;;;10.24;56.77
61035;BME280;46916;40.564;-7.958;2023-02-02T10:47:26;98644.19;;;10.44;55.64
61035;BME280;46916;40.564;-7.958;2023-02-02T10:51:32;98646.72;;;10.46;54.57
61035;BME280;46916;40.564;-7.958;2023-02-02T10:53:33;98650.06;;;10.48;54.56
61035;BME280;46916;40.564;-7.958;2023-02-02T10:55:57;98651.75;;;10.49;54.95
61035;BME280;46916;40.564;-7.958;2023-02-02T11:00:09;98653.47;;;10.62;54.23
61035;BME280;46916;40.564;-7.958;2023-02-02T11:02:15;98660.81;;;10.57;54.64
61035;BME280;46916;40.564;-7.958;2023-02-02T11:04:16;98659.44;;;10.64;54.91
61035;BME280;46916;40.564;-7.958;2023-02-02T11:06:36;98655.81;;;10.67;54.68
61035;BME280;46916;40.564;-7.958;2023-02-02T11:08:50;98665.91;;;10.86;53.65
61035;BME280;46916;40.564;-7.958;2023-02-02T11:13:32;98661.50;;;10.86;54.61
61035;BME280;46916;40.564;-7.958;2023-02-02T11:15:36;98663.84;;;10.91;54.34
61035;BME280;46916;40.564;-7.958;2023-02-02T11:17:37;98664.03;;;11.01;54.12
61035;BME280;46916;40.564;-7.958;2023-02-02T11:19:38;98658.50;;;11.05;54.12
61035;BME280;46916;40.564;-7.958;2023-02-02T11:21:39;98667.50;;;11.14;53.07
61035;BME280;46916;40.564;-7.958;2023-02-02T11:23:40;98662.38;;;11.12;53.20
61035;BME280;46916;40.564;-7.958;2023-02-02T11:25:58;98660.53;;;11.14;53.71
61035;BME280;46916;40.564;-7.958;2023-02-02T11:28:09;98658.00;;;11.26;53.05
61035;BME280;46916;40.564;-7.958;2023-02-02T11:30:30;98654.22;;;11.30;52.76
61035;BME280;46916;40.564;-7.958;2023-02-02T11:32:32;98654.97;;;11.32;52.44
61035;BME280;46916;40.564;-7.958;2023-02-02T11:34:33;98651.91;;;11.38;53.37
61035;BME280;46916;40.564;-7.958;2023-02-02T11:36:34;98645.19;;;11.47;52.32
61035;BME280;46916;40.564;-7.958;2023-02-02T11:38:34;98644.25;;;11.48;52.80
61035;BME280;46916;40.564;-7.958;2023-02-02T11:42:44;98640.16;;;11.56;52.09
61035;BME280;46916;40.564;-7.958;2023-02-02T11:44:57;98646.66;;;11.63;51.90
61035;BME280;46916;40.564;-7.958;2023-02-02T11:46:59;98639.97;;;11.59;51.14
61035;BME280;46916;40.564;-7.958;2023-02-02T11:49:04;98646.66;;;11.51;52.13
61035;BME280;46916;40.564;-7.958;2023-02-02T11:51:23;98645.81;;;11.63;51.76
61035;BME280;46916;40.564;-7.958;2023-02-02T11:53:46;98633.44;;;11.52;51.85
61035;BME280;46916;40.564;-7.958;2023-02-02T11:55:48;98636.78;;;11.54;51.49
61035;BME280;46916;40.564;-7.958;2023-02-02T12:00:19;98623.78;;;11.53;51.04